Airfield :
LOGIN :

Register | Disclaimer

   EN    FR    IT 

 










Legend :    VFR   Marginal VFR   IFR   Intensive IFR   Very Intensive IFR
Visi :
Ceiling :
>= 8 km
>= 3000ft
5 to 8 km
1000 to 3000 ft
1500m to 5 km
500 to 1000 ft
800 to 1500m
200 to 500 ft
< 800m
< 200 ft
Symbols :   Thunderstorms  Fog  Heavy snow  Heavy precipitations  Wind > 20 kt
SIGMETs :     Misc.  Thunderstorms  Icing  Turbulence  Mountain Waves  Volcanic Ashes







- Airport Elevation : 458 ft
- Download approach charts


LFSI - St-Dizier

CURRENT METAR :
  • 240830Z AUTO 26006KT 220V350 CAVOK 20/09 Q1020

EXPIRED METARs :
  • 240800Z AUTO 26004KT 190V310 CAVOK 19/10 Q1020
  • 240730Z AUTO 22005KT 180V250 CAVOK 19/11 Q1020
  • 240700Z AUTO 19004KT 130V240 CAVOK 18/12 Q1020
  • 240630Z AUTO 21003KT 180V240 CAVOK 17/12 Q1020
  • 240600Z AUTO VRB03KT CAVOK 16/13 Q1021
  • 240530Z AUTO VRB03KT CAVOK 16/13 Q1020

TAF TAF LFSI
Valid from the 23 at 15:00 until the 24 at 15:00 UTC


231400Z 2315/2415 24010KT 9999 BKN040
No reported NOTAMs for that airfield.



MET'MAP, your aeronautical weather chart ! - Copyright ORBIFLY December 2007 - Disclaimer

ORBIFLY MET'MAP TEAM :

Programming & Development : Alexandra Zaïnal
Concept & Development : Baudouin d'Aumeries
Co-Development & Prog : Marc-Olivier Méhu
Technical & hardware support : Manuel Goepfert

Contact : metmap@orbifly.com




SOURCES & CREDITS :

   NOAA